Decoded Metar for K0CO (BERTHOUD PASS in CO, USA) (IATA:0CO) | Meteo·Mobile Aviation Weather
aviador You're here:

K0CO Decoded Metar

BERTHOUD PASS in CO, USA
Report Time2019-03-20 23:23:00
UTC Time2019-03-20 23:29:09
Flight Rules unknown UNKNOWN
Wind140° at 12 Gusting to 19 kt
W.Rank140° ranks 18
Current wind is above 140° avg. (10.5)
VisibilityN/A
Phenomena:N/A
Clouds:N/A
Expected CloudBase > 2,400 ft AGL from Temp-Dew spread
CeilingNone
Temp-4°C (ISA +8)
Dew Point-10°C (63% RH)
AAT-11.4°C
QNH1029 hPa
Density Alt13,924 ft
Elevation13,494 ft
Report Wrong Elevation
Raw Report
K0CO 202323Z AUTO 14012G19KT 121V221 CLR M04/M10 A3038 RMK AO2
PWINO=

Extra information for K0CO:More info

Metar Taf Metar & Taf Last 4 Metars F.Rules Stats Wind Profile Meteogram Temp Stats Airport Information Weather charts Add Link Nearby VenuesMetar ALERT Operation Metar Decoded Social comments

AIRNAV info for K0CO